createdAt,value
2019-05-19T00:00:48.850Z,2.77
2019-05-19T00:03:17.546Z,2.50
2019-05-19T00:05:46.255Z,2.30
2019-05-19T00:08:15.039Z,3.50
2019-05-19T00:10:43.826Z,3.20
2019-05-19T00:13:12.514Z,3.53
2019-05-19T00:15:41.306Z,3.37
2019-05-19T00:18:09.988Z,2.50
2019-05-19T00:20:38.776Z,2.63
2019-05-19T00:23:07.473Z,2.57
2019-05-19T00:25:36.176Z,2.70
2019-05-19T00:28:04.981Z,2.70
2019-05-19T00:30:33.683Z,2.87
2019-05-19T00:33:02.450Z,2.93
2019-05-19T00:35:31.201Z,3.30
2019-05-19T00:37:59.889Z,2.60
2019-05-19T00:40:28.576Z,2.80
2019-05-19T00:42:57.344Z,2.50
2019-05-19T00:45:26.052Z,2.87
2019-05-19T00:47:54.760Z,3.10
2019-05-19T00:50:23.465Z,2.60
2019-05-19T00:52:52.164Z,2.20
2019-05-19T00:55:20.867Z,3.00
2019-05-19T00:57:50.549Z,3.03
2019-05-19T01:00:21.320Z,2.50
2019-05-19T01:02:50.039Z,2.80
2019-05-19T01:05:20.679Z,2.67
2019-05-19T01:07:49.083Z,2.17
2019-05-19T01:10:17.881Z,2.43
2019-05-19T01:12:46.580Z,2.63
2019-05-19T01:15:15.860Z,2.20
2019-05-19T01:17:44.639Z,2.40
2019-05-19T01:20:13.549Z,2.37
2019-05-19T01:22:42.259Z,2.77
2019-05-19T01:25:11.043Z,2.40
2019-05-19T01:27:39.732Z,2.40
2019-05-19T01:30:11.023Z,2.57
2019-05-19T01:32:39.707Z,2.60
2019-05-19T01:35:08.711Z,2.40
2019-05-19T01:37:37.413Z,2.70
2019-05-19T01:40:07.615Z,2.50
2019-05-19T01:42:36.621Z,2.67
2019-05-19T01:45:07.149Z,2.27
2019-05-19T01:47:35.928Z,2.50
2019-05-19T01:50:17.563Z,2.43
2019-05-19T01:52:36.485Z,2.40
2019-05-19T01:55:06.571Z,2.47
2019-05-19T01:57:35.271Z,2.47
2019-05-19T02:00:06.748Z,2.07
2019-05-19T02:02:35.456Z,2.30
2019-05-19T02:05:07.953Z,2.37
2019-05-19T02:07:36.700Z,2.40
2019-05-19T02:10:09.962Z,2.40
2019-05-19T02:12:38.642Z,2.10
2019-05-19T02:15:08.141Z,2.50
2019-05-19T02:17:36.915Z,2.50
2019-05-19T02:20:09.783Z,2.37
2019-05-19T02:22:38.477Z,2.60
2019-05-19T02:25:08.166Z,2.40
2019-05-19T02:27:36.883Z,2.30
2019-05-19T02:30:07.593Z,2.30
2019-05-19T02:32:36.294Z,2.00
2019-05-19T02:35:08.602Z,2.53
2019-05-19T02:37:37.387Z,2.47
2019-05-19T02:40:07.733Z,2.40
2019-05-19T02:42:41.742Z,1.97
2019-05-19T02:45:11.147Z,2.30
2019-05-19T02:47:43.865Z,2.10
2019-05-19T02:50:13.174Z,2.17
2019-05-19T02:52:43.669Z,2.60
2019-05-19T02:55:12.455Z,2.10
2019-05-19T02:57:42.465Z,2.27
2019-05-19T03:00:11.940Z,2.60
2019-05-19T03:02:40.715Z,2.50
2019-05-19T03:05:09.734Z,2.50
2019-05-19T03:07:38.440Z,2.20
2019-05-19T03:10:08.643Z,2.23
2019-05-19T03:12:37.414Z,2.40
2019-05-19T03:15:06.922Z,2.30
2019-05-19T03:17:35.693Z,2.20
2019-05-19T03:20:06.277Z,2.20
2019-05-19T03:22:34.979Z,2.20
2019-05-19T03:25:04.792Z,2.30
2019-05-19T03:27:33.489Z,2.10
2019-05-19T03:30:20.217Z,2.20
2019-05-19T03:32:50.558Z,1.90
2019-05-19T03:35:19.366Z,2.40
2019-05-19T03:37:48.037Z,2.33
2019-05-19T03:40:22.434Z,2.30
2019-05-19T03:42:51.535Z,2.33
2019-05-19T03:45:20.317Z,2.33
2019-05-19T03:47:49.014Z,2.43
2019-05-19T03:50:17.922Z,1.90
2019-05-19T03:52:46.625Z,2.10
2019-05-19T03:55:15.547Z,1.83
2019-05-19T03:57:44.247Z,2.23
2019-05-19T04:00:13.072Z,2.40
2019-05-19T04:02:41.762Z,2.00
2019-05-19T04:05:10.639Z,2.17
2019-05-19T04:07:39.362Z,2.10
2019-05-19T04:10:08.627Z,2.23
2019-05-19T04:12:37.338Z,2.17
2019-05-19T04:15:07.621Z,2.03
2019-05-19T04:17:36.317Z,2.30
2019-05-19T04:20:06.446Z,2.20
2019-05-19T04:22:35.145Z,2.30
2019-05-19T04:25:03.954Z,2.10
2019-05-19T04:27:32.663Z,2.10
2019-05-19T04:30:01.370Z,2.40
2019-05-19T04:32:30.092Z,2.23
2019-05-19T04:34:58.787Z,1.83
2019-05-19T04:37:27.510Z,2.13
2019-05-19T04:39:56.207Z,2.00
2019-05-19T04:42:24.916Z,2.07
2019-05-19T04:44:53.629Z,1.90
2019-05-19T04:47:22.329Z,2.03
2019-05-19T04:49:51.115Z,1.90
2019-05-19T04:52:19.821Z,2.20
2019-05-19T04:54:48.609Z,1.90
2019-05-19T04:57:17.307Z,1.90
2019-05-19T04:59:46.017Z,1.83
2019-05-19T05:02:14.777Z,1.93
2019-05-19T05:04:43.502Z,1.60
2019-05-19T05:07:12.205Z,2.20
2019-05-19T05:09:40.986Z,2.10
2019-05-19T05:12:09.685Z,2.23
2019-05-19T05:14:38.393Z,1.97
2019-05-19T05:17:07.103Z,2.30
2019-05-19T05:19:35.813Z,2.20
2019-05-19T05:22:04.604Z,2.20
2019-05-19T05:24:33.388Z,2.03
2019-05-19T05:27:02.105Z,2.10
2019-05-19T05:29:30.798Z,1.80
2019-05-19T05:31:59.495Z,2.00
2019-05-19T05:34:28.213Z,2.03
2019-05-19T05:36:56.992Z,2.10
2019-05-19T05:39:25.714Z,2.00
2019-05-19T05:41:54.414Z,2.10
2019-05-19T05:44:23.121Z,2.10
2019-05-19T05:46:51.827Z,2.30
2019-05-19T05:49:20.552Z,2.30
2019-05-19T05:51:49.268Z,2.20
2019-05-19T05:54:18.042Z,2.00
2019-05-19T05:56:46.741Z,2.40
2019-05-19T05:59:15.455Z,1.90
2019-05-19T06:01:44.163Z,2.07
2019-05-19T06:04:12.954Z,2.60
2019-05-19T06:06:41.658Z,2.23
2019-05-19T06:09:10.365Z,2.23
2019-05-19T06:11:39.097Z,2.50
2019-05-19T06:14:07.784Z,2.57
2019-05-19T06:16:36.768Z,2.60
2019-05-19T06:19:05.550Z,2.33
2019-05-19T06:21:34.249Z,2.37
2019-05-19T06:24:02.989Z,2.13
2019-05-19T06:26:31.708Z,2.50
2019-05-19T06:29:00.425Z,2.60
2019-05-19T06:31:29.120Z,2.27
2019-05-19T06:33:57.826Z,2.60
2019-05-19T06:36:26.567Z,2.53
2019-05-19T06:38:55.363Z,2.33
2019-05-19T06:41:24.035Z,2.80
2019-05-19T06:43:52.822Z,2.30
2019-05-19T06:46:21.522Z,2.50
2019-05-19T06:48:50.234Z,2.70
2019-05-19T06:51:18.934Z,2.40
2019-05-19T06:53:47.724Z,2.60
2019-05-19T06:56:35.706Z,2.70
2019-05-19T06:59:04.417Z,2.30
2019-05-19T07:01:33.139Z,2.53
2019-05-19T07:04:01.921Z,2.23
2019-05-19T07:06:30.689Z,2.67
2019-05-19T07:08:59.469Z,2.50
2019-05-19T07:11:28.195Z,2.43
2019-05-19T07:13:56.973Z,2.30
2019-05-19T07:16:25.685Z,2.57
2019-05-19T07:18:54.417Z,2.57
2019-05-19T07:21:23.189Z,3.27
2019-05-19T07:23:51.905Z,2.60
2019-05-19T07:26:20.611Z,2.80
2019-05-19T07:28:49.425Z,3.10
2019-05-19T07:31:18.130Z,2.90
2019-05-19T07:33:46.954Z,3.27
2019-05-19T07:36:15.633Z,2.27
2019-05-19T07:38:44.332Z,2.63
2019-05-19T07:41:13.042Z,2.83
2019-05-19T07:43:41.749Z,2.73
2019-05-19T07:46:10.550Z,2.80
2019-05-19T07:48:39.269Z,2.63
2019-05-19T07:51:08.066Z,2.70
2019-05-19T07:53:42.963Z,3.00
2019-05-19T07:56:07.143Z,2.90
2019-05-19T07:58:35.849Z,2.73
2019-05-19T08:01:04.626Z,2.90
2019-05-19T08:03:33.350Z,2.90
2019-05-19T08:06:02.146Z,2.97
2019-05-19T08:08:31.136Z,2.73
2019-05-19T08:10:59.904Z,3.03
2019-05-19T08:13:28.605Z,2.60
2019-05-19T08:15:57.325Z,2.90
2019-05-19T08:18:26.037Z,2.70
2019-05-19T08:20:54.825Z,2.73
2019-05-19T08:23:23.609Z,3.03
2019-05-19T08:25:52.333Z,2.73
2019-05-19T08:28:21.033Z,2.87
2019-05-19T08:30:49.741Z,2.70
2019-05-19T08:33:18.564Z,2.70
2019-05-19T08:35:47.310Z,3.47
2019-05-19T08:38:16.089Z,2.50
2019-05-19T08:40:44.929Z,2.70
2019-05-19T08:43:13.609Z,2.70
2019-05-19T08:45:42.385Z,2.67
2019-05-19T08:48:11.100Z,2.57
2019-05-19T08:50:39.870Z,2.47
2019-05-19T08:53:08.574Z,2.63
2019-05-19T08:55:37.292Z,2.90
2019-05-19T08:58:06.001Z,2.93
2019-05-19T09:00:38.261Z,2.87
2019-05-19T09:03:05.242Z,2.23
2019-05-19T09:05:33.893Z,2.50
2019-05-19T09:08:02.601Z,2.10
2019-05-19T09:10:31.389Z,2.57
2019-05-19T09:13:00.157Z,2.40
2019-05-19T09:15:28.872Z,2.40
2019-05-19T09:17:57.591Z,2.60
2019-05-19T09:20:26.365Z,3.13
2019-05-19T09:22:55.065Z,2.83
2019-05-19T09:25:23.771Z,2.60
2019-05-19T09:27:52.753Z,2.63
2019-05-19T09:30:21.454Z,3.33
2019-05-19T09:32:50.245Z,2.47
2019-05-19T09:35:19.136Z,2.50
2019-05-19T09:37:47.845Z,2.73
2019-05-19T09:40:16.638Z,2.70
2019-05-19T09:42:45.349Z,2.50
2019-05-19T09:45:15.641Z,3.07
2019-05-19T09:47:44.286Z,2.70
2019-05-19T09:50:13.154Z,3.20
2019-05-19T09:52:41.866Z,2.80
2019-05-19T09:55:10.873Z,2.97
2019-05-19T09:57:39.584Z,3.77
2019-05-19T10:00:10.507Z,2.90
2019-05-19T10:02:39.291Z,3.20
2019-05-19T10:05:08.093Z,2.83
2019-05-19T10:07:36.824Z,3.30
2019-05-19T10:10:08.641Z,3.70
2019-05-19T10:12:37.401Z,2.60
2019-05-19T10:15:07.310Z,3.07
2019-05-19T10:17:36.021Z,3.10
2019-05-19T10:20:07.655Z,2.90
2019-05-19T10:22:36.419Z,3.03
2019-05-19T10:25:20.848Z,3.03
2019-05-19T10:27:37.752Z,3.10
2019-05-19T10:30:08.501Z,2.97
2019-05-19T10:32:37.206Z,2.70
2019-05-19T10:35:06.203Z,3.10
2019-05-19T10:37:34.922Z,2.90
2019-05-19T10:40:04.617Z,3.00
2019-05-19T10:42:33.533Z,2.55
2019-05-19T10:45:02.245Z,2.52
2019-05-19T10:47:30.949Z,3.30
2019-05-19T10:49:59.734Z,2.60
2019-05-19T10:52:28.444Z,2.60
2019-05-19T10:54:57.153Z,2.52
2019-05-19T10:57:25.933Z,2.37
2019-05-19T10:59:54.660Z,2.30
2019-05-19T11:02:23.376Z,2.20
2019-05-19T11:04:52.149Z,2.42
2019-05-19T11:07:20.865Z,2.20
2019-05-19T11:09:49.576Z,2.33
2019-05-19T11:12:18.276Z,2.17
2019-05-19T11:14:46.994Z,1.90
2019-05-19T11:17:16.194Z,2.20
2019-05-19T11:19:44.969Z,2.33
2019-05-19T11:22:13.692Z,2.12
2019-05-19T11:24:42.454Z,2.90
2019-05-19T11:27:11.217Z,2.12
2019-05-19T11:29:39.919Z,2.45
2019-05-19T11:32:08.641Z,2.52
2019-05-19T11:34:37.345Z,2.67
2019-05-19T11:37:07.458Z,2.60
2019-05-19T11:39:36.325Z,2.50
2019-05-19T11:42:05.113Z,2.47
2019-05-19T11:44:33.913Z,2.52
2019-05-19T11:47:02.618Z,3.58
2019-05-19T11:49:31.387Z,2.10
2019-05-19T11:52:00.206Z,2.90
2019-05-19T11:54:28.883Z,2.52
2019-05-19T11:56:57.598Z,3.00
2019-05-19T11:59:26.385Z,2.60
2019-05-19T12:01:55.163Z,2.62
2019-05-19T12:04:23.953Z,3.27
2019-05-19T12:06:52.735Z,3.30
2019-05-19T12:09:21.559Z,3.08
2019-05-19T12:11:50.257Z,3.10
2019-05-19T12:14:18.982Z,2.67
2019-05-19T12:16:47.771Z,2.60
2019-05-19T12:19:16.444Z,3.05
2019-05-19T12:21:45.166Z,5.80
2019-05-19T12:24:13.952Z,3.10
2019-05-19T12:26:42.740Z,2.77
2019-05-19T12:29:11.444Z,2.42
2019-05-19T12:31:40.214Z,2.25
2019-05-19T12:34:08.930Z,2.40
2019-05-19T12:36:37.692Z,4.75
2019-05-19T12:39:07.221Z,6.40
2019-05-19T12:41:35.944Z,14.18
2019-05-19T12:44:04.722Z,2.42
2019-05-19T12:46:33.501Z,2.37
2019-05-19T12:49:02.214Z,2.45
2019-05-19T12:51:30.945Z,2.95
2019-05-19T12:53:59.641Z,2.98
2019-05-19T12:56:39.145Z,2.70
2019-05-19T12:58:59.013Z,2.75
2019-05-19T13:01:28.321Z,2.72
2019-05-19T13:03:57.048Z,2.12
2019-05-19T13:06:25.753Z,2.42
2019-05-19T13:08:54.525Z,2.25
2019-05-19T13:11:23.249Z,2.98
2019-05-19T13:13:52.022Z,3.02
2019-05-19T13:16:20.742Z,3.10
2019-05-19T13:18:49.514Z,2.85
2019-05-19T13:21:18.264Z,2.90
2019-05-19T13:23:47.006Z,2.85
2019-05-19T13:26:15.779Z,2.60
2019-05-19T13:28:44.489Z,2.75
2019-05-19T13:31:13.293Z,2.80
2019-05-19T13:33:42.001Z,2.87
2019-05-19T13:36:10.782Z,2.98
2019-05-19T13:38:39.571Z,2.98
2019-05-19T13:41:08.278Z,2.55
2019-05-19T13:43:36.975Z,2.72
2019-05-19T13:46:05.672Z,2.60
2019-05-19T13:48:34.430Z,2.75
2019-05-19T13:51:03.175Z,2.47
2019-05-19T13:53:31.873Z,2.55
2019-05-19T13:56:00.573Z,2.80
2019-05-19T13:58:29.429Z,2.75
2019-05-19T14:00:58.106Z,2.67
2019-05-19T14:03:26.870Z,2.85
2019-05-19T14:05:55.665Z,2.72
2019-05-19T14:08:24.368Z,2.90
2019-05-19T14:10:53.077Z,3.45
2019-05-19T14:13:21.809Z,3.42
2019-05-19T14:15:50.510Z,2.62
2019-05-19T14:18:19.341Z,2.92
2019-05-19T14:20:48.105Z,2.50
2019-05-19T14:23:16.842Z,2.90
2019-05-19T14:25:45.537Z,2.90
2019-05-19T14:28:14.336Z,2.50
2019-05-19T14:30:43.113Z,2.85
2019-05-19T14:33:11.814Z,2.70
2019-05-19T14:35:40.601Z,2.60
2019-05-19T14:38:09.360Z,2.75
2019-05-19T14:40:38.097Z,2.55
2019-05-19T14:43:06.864Z,3.15
2019-05-19T14:45:35.645Z,2.75
2019-05-19T14:48:04.442Z,2.62
2019-05-19T14:50:33.209Z,3.10
2019-05-19T14:53:02.000Z,2.55
2019-05-19T14:55:30.776Z,2.75
2019-05-19T14:57:59.507Z,2.15
2019-05-19T15:00:28.298Z,2.52
2019-05-19T15:02:57.007Z,2.40
2019-05-19T15:05:25.726Z,2.27
2019-05-19T15:07:54.548Z,2.05
2019-05-19T15:10:23.360Z,2.80
2019-05-19T15:12:52.168Z,2.08
2019-05-19T15:15:21.077Z,2.45
2019-05-19T15:17:49.780Z,2.55
2019-05-19T15:20:19.094Z,2.40
2019-05-19T15:22:47.829Z,2.52
2019-05-19T15:25:16.729Z,2.50
2019-05-19T15:27:59.253Z,2.40
2019-05-19T15:30:16.245Z,2.30
2019-05-19T15:32:45.044Z,2.47
2019-05-19T15:35:13.925Z,2.62
2019-05-19T15:37:42.721Z,2.15
2019-05-19T15:40:11.590Z,2.50
2019-05-19T15:42:40.497Z,2.42
2019-05-19T15:45:10.790Z,2.47
2019-05-19T15:47:39.508Z,2.67
2019-05-19T15:50:08.890Z,2.65
2019-05-19T15:52:37.585Z,2.52
2019-05-19T15:55:06.755Z,2.30
2019-05-19T15:57:35.736Z,2.00
2019-05-19T16:00:07.216Z,2.15
2019-05-19T16:02:36.288Z,2.50
2019-05-19T16:05:06.636Z,2.50
2019-05-19T16:07:35.337Z,2.35
2019-05-19T16:10:06.996Z,2.70
2019-05-19T16:12:35.685Z,2.45
2019-05-19T16:15:06.417Z,2.55
2019-05-19T16:17:35.204Z,2.50
2019-05-19T16:20:07.576Z,2.50
2019-05-19T16:22:36.370Z,2.58
2019-05-19T16:25:08.055Z,2.75
2019-05-19T16:27:36.760Z,2.22
2019-05-19T16:30:09.824Z,2.50
2019-05-19T16:32:38.544Z,3.00
2019-05-19T16:35:07.950Z,2.70
2019-05-19T16:37:36.737Z,2.83
2019-05-19T16:40:06.281Z,2.65
2019-05-19T16:42:35.086Z,2.52
2019-05-19T16:45:04.988Z,2.62
2019-05-19T16:47:33.759Z,3.33
2019-05-19T16:50:02.552Z,2.95
2019-05-19T16:52:31.406Z,2.83
2019-05-19T16:55:17.933Z,2.80
2019-05-19T16:57:46.705Z,2.92
2019-05-19T17:00:15.582Z,3.15
2019-05-19T17:02:44.301Z,2.87
2019-05-19T17:05:13.371Z,2.90
2019-05-19T17:07:42.092Z,2.72
2019-05-19T17:10:11.076Z,2.60
2019-05-19T17:12:39.807Z,2.80
2019-05-19T17:15:09.122Z,2.60
2019-05-19T17:17:37.909Z,2.58
2019-05-19T17:20:07.925Z,2.27
2019-05-19T17:22:36.628Z,2.50
2019-05-19T17:25:08.183Z,2.72
2019-05-19T17:27:36.980Z,2.80
2019-05-19T17:30:10.810Z,2.50
2019-05-19T17:32:39.547Z,2.67
2019-05-19T17:35:08.874Z,3.02
2019-05-19T17:37:37.633Z,2.75
2019-05-19T17:40:06.758Z,2.92
2019-05-19T17:42:37.274Z,2.80
2019-05-19T17:45:07.172Z,2.80
2019-05-19T17:47:36.081Z,2.87
2019-05-19T17:50:05.544Z,2.92
2019-05-19T17:52:34.265Z,3.02
2019-05-19T17:55:03.250Z,2.72
2019-05-19T17:57:33.644Z,3.17
2019-05-19T18:00:03.527Z,3.10
2019-05-19T18:02:32.252Z,3.42
2019-05-19T18:05:01.072Z,3.10
2019-05-19T18:07:29.804Z,2.85
2019-05-19T18:09:58.578Z,3.17
2019-05-19T18:12:27.373Z,3.00
2019-05-19T18:14:56.098Z,2.90
2019-05-19T18:17:24.880Z,2.97
2019-05-19T18:19:53.585Z,3.10
2019-05-19T18:22:22.413Z,3.47
2019-05-19T18:24:51.084Z,2.83
2019-05-19T18:27:19.865Z,2.97
2019-05-19T18:29:48.654Z,2.98
2019-05-19T18:32:17.445Z,2.67
2019-05-19T18:34:46.153Z,3.10
2019-05-19T18:37:14.941Z,3.07
2019-05-19T18:39:43.734Z,3.05
2019-05-19T18:42:12.474Z,2.90
2019-05-19T18:44:41.163Z,3.10
2019-05-19T18:47:09.949Z,3.15
2019-05-19T18:49:38.688Z,2.90
2019-05-19T18:52:07.437Z,3.03
2019-05-19T18:54:36.234Z,2.97
2019-05-19T18:57:04.951Z,3.20
2019-05-19T18:59:46.494Z,3.03
2019-05-19T19:02:04.278Z,3.00
2019-05-19T19:04:33.091Z,2.97
2019-05-19T19:07:01.867Z,3.00
2019-05-19T19:09:30.689Z,2.70
2019-05-19T19:11:59.480Z,3.53
2019-05-19T19:14:28.275Z,3.00
2019-05-19T19:16:56.998Z,3.10
2019-05-19T19:19:25.707Z,2.80
2019-05-19T19:21:54.518Z,3.20
2019-05-19T19:24:23.308Z,2.73
2019-05-19T19:26:52.031Z,3.50
2019-05-19T19:29:20.816Z,3.20
2019-05-19T19:31:49.664Z,3.13
2019-05-19T19:34:18.380Z,3.13
2019-05-19T19:36:47.164Z,3.00
2019-05-19T19:39:15.923Z,3.07
2019-05-19T19:41:44.785Z,3.43
2019-05-19T19:44:13.521Z,3.00
2019-05-19T19:46:42.312Z,3.50
2019-05-19T19:49:11.021Z,3.13
2019-05-19T19:51:39.812Z,3.13
2019-05-19T19:54:08.660Z,3.20
2019-05-19T19:56:37.385Z,3.20
2019-05-19T19:59:06.083Z,3.33
2019-05-19T20:01:34.858Z,3.60
2019-05-19T20:04:03.645Z,3.30
2019-05-19T20:06:32.408Z,2.97
2019-05-19T20:09:01.201Z,3.70
2019-05-19T20:11:29.901Z,3.07
2019-05-19T20:13:58.649Z,3.33
2019-05-19T20:16:27.330Z,3.43
2019-05-19T20:18:56.102Z,4.50
2019-05-19T20:21:24.918Z,3.50
2019-05-19T20:23:53.692Z,4.30
2019-05-19T20:26:22.481Z,3.90
2019-05-19T20:28:51.186Z,4.50
2019-05-19T20:31:19.886Z,6.00
2019-05-19T20:33:48.608Z,5.90
2019-05-19T20:36:17.305Z,5.73
2019-05-19T20:38:46.141Z,5.17
2019-05-19T20:41:14.848Z,5.37
2019-05-19T20:43:43.628Z,5.10
2019-05-19T20:46:12.403Z,5.00
2019-05-19T20:48:41.173Z,5.60
2019-05-19T20:51:09.983Z,6.37
2019-05-19T20:53:38.749Z,5.73
2019-05-19T20:56:07.490Z,5.97
2019-05-19T20:58:36.188Z,5.83
2019-05-19T21:01:04.960Z,6.10
2019-05-19T21:03:33.695Z,6.70
2019-05-19T21:06:02.401Z,7.17
2019-05-19T21:08:31.123Z,6.47
2019-05-19T21:11:00.418Z,6.50
2019-05-19T21:13:29.195Z,6.30
2019-05-19T21:15:58.894Z,5.60
2019-05-19T21:18:27.597Z,5.20
2019-05-19T21:20:56.309Z,5.27
2019-05-19T21:23:25.091Z,5.30
2019-05-19T21:25:53.791Z,4.80
2019-05-19T21:28:22.563Z,4.77
2019-05-19T21:31:04.827Z,4.73
2019-05-19T21:33:21.631Z,4.93
2019-05-19T21:35:50.402Z,4.50
2019-05-19T21:38:19.097Z,4.47
2019-05-19T21:40:47.805Z,4.60
2019-05-19T21:43:16.608Z,5.33
2019-05-19T21:45:45.304Z,5.30
2019-05-19T21:48:14.086Z,5.13
2019-05-19T21:50:42.858Z,5.17
2019-05-19T21:53:11.551Z,5.63
2019-05-19T21:55:40.270Z,5.30
2019-05-19T21:58:09.038Z,5.23
2019-05-19T22:00:38.023Z,5.40
2019-05-19T22:03:06.731Z,5.83
2019-05-19T22:05:35.436Z,5.30
2019-05-19T22:08:05.769Z,5.63
2019-05-19T22:10:34.581Z,5.83
2019-05-19T22:13:03.298Z,5.60
2019-05-19T22:15:32.079Z,5.60
2019-05-19T22:18:00.789Z,5.97
2019-05-19T22:20:29.516Z,5.80
2019-05-19T22:22:58.246Z,5.93
2019-05-19T22:25:26.948Z,5.90
2019-05-19T22:27:55.636Z,6.10
2019-05-19T22:30:24.371Z,6.00
2019-05-19T22:32:53.668Z,6.57
2019-05-19T22:35:22.394Z,5.53
2019-05-19T22:37:51.096Z,6.10
2019-05-19T22:40:19.808Z,5.93
2019-05-19T22:42:48.577Z,5.57
2019-05-19T22:45:17.294Z,6.07
2019-05-19T22:47:46.013Z,5.90
2019-05-19T22:50:14.918Z,5.60
2019-05-19T22:52:43.749Z,5.80
2019-05-19T22:55:12.933Z,5.33
2019-05-19T22:57:41.639Z,6.17
2019-05-19T23:00:12.314Z,6.60
2019-05-19T23:02:41.019Z,5.73
2019-05-19T23:05:10.305Z,5.90
2019-05-19T23:07:39.011Z,11.47
2019-05-19T23:10:08.360Z,6.13
2019-05-19T23:12:37.074Z,5.60
2019-05-19T23:15:09.769Z,5.33
2019-05-19T23:17:38.503Z,4.70
2019-05-19T23:20:07.390Z,5.07
2019-05-19T23:22:36.098Z,5.23
2019-05-19T23:25:06.123Z,6.10
2019-05-19T23:27:34.827Z,5.30
2019-05-19T23:30:05.298Z,5.13
2019-05-19T23:32:34.073Z,4.73
2019-05-19T23:35:02.853Z,5.17
2019-05-19T23:37:31.577Z,7.13
2019-05-19T23:40:00.364Z,5.20
2019-05-19T23:42:29.058Z,5.90
2019-05-19T23:44:57.755Z,5.97
2019-05-19T23:47:26.536Z,6.30
2019-05-19T23:49:55.256Z,5.70
2019-05-19T23:52:24.027Z,5.43
2019-05-19T23:54:52.728Z,5.37
2019-05-19T23:57:21.448Z,5.90
2019-05-19T23:59:50.136Z,5.33
